This is the latest recevied weather packets stored in our database for station/object F8BPU-7. If no packets are shown the sender has not sent any weather packets the latest 1 day(s).
| Time | Temp. | Humidity | Pressure | Rain* | Wind** | Luminosity | Snow |
|---|---|---|---|---|---|---|---|
| 1778373331 | 20.56° C | 37% | 1016.1 hPa | - | - | - | - |
| 1778372728 | 20.56° C | 37% | 1012.9 hPa | - | - | - | - |
| 1778372125 | 20.56° C | 37% | 1017.7 hPa | - | - | - | - |
| 1778371522 | 20.56° C | 37% | 1016.8 hPa | - | - | - | - |
| 1778365491 | 22.78° C | 34% | 1017.2 hPa | - | - | - | - |
| 1778359460 | 25.56° C | 32% | 1017.6 hPa | - | - | - | - |
| 1778358856 | 25.56° C | 32% | 1016.6 hPa | - | - | - | - |
| 1778353429 | 27.22° C | 30% | 1015.1 hPa | - | - | - | - |
| 1778352825 | 27.22° C | 31% | 1013.9 hPa | - | - | - | - |
| 1778347398 | 27.78° C | 30% | 1014.6 hPa | - | - | - | - |
| 1778346191 | 27.78° C | 29% | 1016.8 hPa | - | - | - | - |
| 1778345588 | 27.78° C | 29% | 1015.7 hPa | - | - | - | - |
| 1778344985 | 27.78° C | 30% | 1015 hPa | - | - | - | - |
| 1778340160 | 27.78° C | 29% | 1016.8 hPa | - | - | - | - |
| 1778338351 | 27.22° C | 29% | 1015.8 hPa | - | - | - | - |
| 1778337145 | 27.78° C | 29% | 1016.2 hPa | - | - | - | - |
| 1778335336 | 28.33° C | 28% | 1016.9 hPa | - | - | - | - |
| 1778328285 | 27.22° C | 32% | 1016.4 hPa | - | - | - | - |
| 1778327079 | 26.67° C | 33% | 1017.4 hPa | - | - | - | - |
| 1778324666 | 25° C | 40% | 1018.3 hPa | - | - | - | - |
* Rain since midnight (hover to see other rain measurements)
** Current wind speed in m/s (hover to see current wind gust speed)